sensor_id;sensor_type;location;lat;lon;timestamp;pressure;altitude;pressure_sealevel;temperature
48003;BMP280;33768;48.578;11.574;2022-10-17T00:00:44;97127.31;;;14.20
48003;BMP280;33768;48.578;11.574;2022-10-17T00:03:48;97133.47;;;14.13
48003;BMP280;33768;48.578;11.574;2022-10-17T00:06:52;97125.34;;;14.08
48003;BMP280;33768;48.578;11.574;2022-10-17T00:09:56;97138.13;;;14.06
48003;BMP280;33768;48.578;11.574;2022-10-17T00:13:00;97129.50;;;14.02
48003;BMP280;33768;48.578;11.574;2022-10-17T00:16:05;97132.84;;;13.95
48003;BMP280;33768;48.578;11.574;2022-10-17T00:19:09;97132.63;;;13.93
48003;BMP280;33768;48.578;11.574;2022-10-17T00:22:13;97136.66;;;13.92
48003;BMP280;33768;48.578;11.574;2022-10-17T00:25:18;97130.31;;;13.97
48003;BMP280;33768;48.578;11.574;2022-10-17T00:28:22;97130.31;;;13.97
48003;BMP280;33768;48.578;11.574;2022-10-17T00:31:27;97132.63;;;13.93
48003;BMP280;33768;48.578;11.574;2022-10-17T00:34:31;97136.44;;;13.90
48003;BMP280;33768;48.578;11.574;2022-10-17T00:37:36;97137.28;;;13.85
48003;BMP280;33768;48.578;11.574;2022-10-17T00:40:40;97134.16;;;13.81
48003;BMP280;33768;48.578;11.574;2022-10-17T00:44:02;97132.78;;;13.75
48003;BMP280;33768;48.578;11.574;2022-10-17T00:47:10;97130.13;;;13.69
48003;BMP280;33768;48.578;11.574;2022-10-17T00:50:17;97137.22;;;13.65
48003;BMP280;33768;48.578;11.574;2022-10-17T00:53:22;97136.03;;;13.60
48003;BMP280;33768;48.578;11.574;2022-10-17T00:56:26;97142.06;;;13.59
48003;BMP280;33768;48.578;11.574;2022-10-17T00:59:33;97141.13;;;13.56
48003;BMP280;33768;48.578;11.574;2022-10-17T01:02:38;97133.94;;;13.53
48003;BMP280;33768;48.578;11.574;2022-10-17T01:05:43;97139.44;;;13.53
48003;BMP280;33768;48.578;11.574;2022-10-17T01:08:47;97135.94;;;13.53
48003;BMP280;33768;48.578;11.574;2022-10-17T01:12:03;97143.22;;;13.50
48003;BMP280;33768;48.578;11.574;2022-10-17T01:21:51;97147.44;;;13.39
48003;BMP280;33768;48.578;11.574;2022-10-17T01:28:55;97130.66;;;13.29
48003;BMP280;33768;48.578;11.574;2022-10-17T01:33:28;97139.50;;;13.22
48003;BMP280;33768;48.578;11.574;2022-10-17T01:37:11;97141.63;;;13.16
48003;BMP280;33768;48.578;11.574;2022-10-17T01:39:53;97136.00;;;13.09
48003;BMP280;33768;48.578;11.574;2022-10-17T01:46:19;97132.41;;;13.01
48003;BMP280;33768;48.578;11.574;2022-10-17T01:49:26;97126.31;;;12.95
48003;BMP280;33768;48.578;11.574;2022-10-17T01:52:37;97135.34;;;12.90
48003;BMP280;33768;48.578;11.574;2022-10-17T01:55:44;97137.88;;;12.88
48003;BMP280;33768;48.578;11.574;2022-10-17T01:58:54;97125.50;;;12.82
48003;BMP280;33768;48.578;11.574;2022-10-17T02:02:00;97132.03;;;12.79
48003;BMP280;33768;48.578;11.574;2022-10-17T02:05:05;97132.84;;;12.74
48003;BMP280;33768;48.578;11.574;2022-10-17T02:08:11;97123.44;;;12.70
48003;BMP280;33768;48.578;11.574;2022-10-17T02:21:09;97125.13;;;12.60
48003;BMP280;33768;48.578;11.574;2022-10-17T02:30:48;97137.19;;;12.51
48003;BMP280;33768;48.578;11.574;2022-10-17T02:33:57;97125.59;;;12.46
48003;BMP280;33768;48.578;11.574;2022-10-17T02:37:04;97129.66;;;12.39
48003;BMP280;33768;48.578;11.574;2022-10-17T02:40:11;97127.97;;;12.36
48003;BMP280;33768;48.578;11.574;2022-10-17T02:43:18;97134.72;;;12.35
48003;BMP280;33768;48.578;11.574;2022-10-17T02:46:23;97130.06;;;12.30
48003;BMP280;33768;48.578;11.574;2022-10-17T02:49:33;97134.13;;;12.24
48003;BMP280;33768;48.578;11.574;2022-10-17T02:52:49;97142.09;;;12.22
48003;BMP280;33768;48.578;11.574;2022-10-17T02:55:58;97136.44;;;12.20
48003;BMP280;33768;48.578;11.574;2022-10-17T02:59:04;97143.13;;;12.19
48003;BMP280;33768;48.578;11.574;2022-10-17T03:02:09;97142.19;;;12.17
48003;BMP280;33768;48.578;11.574;2022-10-17T03:05:20;97140.25;;;12.12
48003;BMP280;33768;48.578;11.574;2022-10-17T03:08:25;97141.06;;;12.07
48003;BMP280;33768;48.578;11.574;2022-10-17T03:11:29;97145.56;;;12.04
48003;BMP280;33768;48.578;11.574;2022-10-17T03:14:34;97146.13;;;12.03
48003;BMP280;33768;48.578;11.574;2022-10-17T03:17:40;97153.06;;;12.04
48003;BMP280;33768;48.578;11.574;2022-10-17T03:20:45;97146.13;;;12.03
48003;BMP280;33768;48.578;11.574;2022-10-17T03:23:49;97148.84;;;12.03
48003;BMP280;33768;48.578;11.574;2022-10-17T03:26:54;97154.09;;;12.01
48003;BMP280;33768;48.578;11.574;2022-10-17T03:29:58;97166.06;;;11.98
48003;BMP280;33768;48.578;11.574;2022-10-17T03:33:03;97164.16;;;11.93
48003;BMP280;33768;48.578;11.574;2022-10-17T03:36:10;97152.75;;;11.89
48003;BMP280;33768;48.578;11.574;2022-10-17T03:39:15;97158.75;;;11.88
48003;BMP280;33768;48.578;11.574;2022-10-17T03:42:19;97160.00;;;11.87
48003;BMP280;33768;48.578;11.574;2022-10-17T03:45:23;97166.78;;;11.80
48003;BMP280;33768;48.578;11.574;2022-10-17T03:48:30;97161.91;;;11.73
48003;BMP280;33768;48.578;11.574;2022-10-17T03:51:36;97161.66;;;11.71
48003;BMP280;33768;48.578;11.574;2022-10-17T03:54:45;97169.88;;;11.71
48003;BMP280;33768;48.578;11.574;2022-10-17T03:57:49;97173.13;;;11.70
48003;BMP280;33768;48.578;11.574;2022-10-17T04:00:56;97170.91;;;11.68
48003;BMP280;33768;48.578;11.574;2022-10-17T04:04:00;97172.44;;;11.64
48003;BMP280;33768;48.578;11.574;2022-10-17T04:07:08;97164.78;;;11.62
48003;BMP280;33768;48.578;11.574;2022-10-17T04:10:15;97160.53;;;11.61
48003;BMP280;33768;48.578;11.574;2022-10-17T04:13:20;97167.78;;;11.59
48003;BMP280;33768;48.578;11.574;2022-10-17T04:16:24;97172.56;;;11.53
48003;BMP280;33768;48.578;11.574;2022-10-17T04:19:42;97178.09;;;11.48
48003;BMP280;33768;48.578;11.574;2022-10-17T04:22:46;97180.91;;;11.42
48003;BMP280;33768;48.578;11.574;2022-10-17T04:25:54;97186.16;;;11.35
48003;BMP280;33768;48.578;11.574;2022-10-17T04:28:58;97189.44;;;11.28
48003;BMP280;33768;48.578;11.574;2022-10-17T04:32:03;97195.44;;;11.26
48003;BMP280;33768;48.578;11.574;2022-10-17T04:35:16;97201.19;;;11.23
48003;BMP280;33768;48.578;11.574;2022-10-17T04:38:27;97211.13;;;11.21
48003;BMP280;33768;48.578;11.574;2022-10-17T04:41:31;97210.75;;;11.11
48003;BMP280;33768;48.578;11.574;2022-10-17T04:44:35;97197.41;;;11.02
48003;BMP280;33768;48.578;11.574;2022-10-17T04:47:40;97200.91;;;10.97
48003;BMP280;33768;48.578;11.574;2022-10-17T04:50:58;97196.72;;;10.96
48003;BMP280;33768;48.578;11.574;2022-10-17T04:54:10;97199.19;;;10.94
48003;BMP280;33768;48.578;11.574;2022-10-17T04:57:18;97199.19;;;10.94
48003;BMP280;33768;48.578;11.574;2022-10-17T05:00:39;97200.97;;;10.92
48003;BMP280;33768;48.578;11.574;2022-10-17T05:03:55;97203.94;;;10.94
48003;BMP280;33768;48.578;11.574;2022-10-17T05:07:00;97197.94;;;10.95
48003;BMP280;33768;48.578;11.574;2022-10-17T05:10:19;97196.22;;;10.93
48003;BMP280;33768;48.578;11.574;2022-10-17T05:13:26;97206.66;;;10.94
48003;BMP280;33768;48.578;11.574;2022-10-17T05:16:30;97202.44;;;10.93
48003;BMP280;33768;48.578;11.574;2022-10-17T05:19:35;97211.34;;;10.93
48003;BMP280;33768;48.578;11.574;2022-10-17T05:22:39;97212.84;;;10.94
48003;BMP280;33768;48.578;11.574;2022-10-17T05:25:43;97217.53;;;10.99
48003;BMP280;33768;48.578;11.574;2022-10-17T05:28:49;97221.47;;;11.04
48003;BMP280;33768;48.578;11.574;2022-10-17T05:31:57;97218.50;;;11.02
48003;BMP280;33768;48.578;11.574;2022-10-17T05:35:02;97220.50;;;11.01
48003;BMP280;33768;48.578;11.574;2022-10-17T05:38:07;97213.78;;;11.02
48003;BMP280;33768;48.578;11.574;2022-10-17T05:41:13;97221.97;;;11.02
48003;BMP280;33768;48.578;11.574;2022-10-17T05:44:17;97218.41;;;11.13
48003;BMP280;33768;48.578;11.574;2022-10-17T05:47:25;97223.59;;;11.16
48003;BMP280;33768;48.578;11.574;2022-10-17T05:50:29;97232.81;;;11.13
48003;BMP280;33768;48.578;11.574;2022-10-17T05:53:40;97224.16;;;11.09
48003;BMP280;33768;48.578;11.574;2022-10-17T05:56:53;97227.69;;;11.04
48003;BMP280;33768;48.578;11.574;2022-10-17T06:00:01;97225.97;;;11.01
48003;BMP280;33768;48.578;11.574;2022-10-17T06:03:18;97225.44;;;11.03
48003;BMP280;33768;48.578;11.574;2022-10-17T06:06:23;97234.13;;;11.07
48003;BMP280;33768;48.578;11.574;2022-10-17T06:09:28;97241.00;;;11.13
48003;BMP280;33768;48.578;11.574;2022-10-17T06:12:33;97250.47;;;11.12
48003;BMP280;33768;48.578;11.574;2022-10-17T06:15:37;97253.25;;;11.07
48003;BMP280;33768;48.578;11.574;2022-10-17T06:18:45;97252.53;;;11.01
48003;BMP280;33768;48.578;11.574;2022-10-17T06:21:49;97263.75;;;10.97
48003;BMP280;33768;48.578;11.574;2022-10-17T06:24:58;97267.50;;;10.94
48003;BMP280;33768;48.578;11.574;2022-10-17T06:28:02;97263.25;;;10.93
48003;BMP280;33768;48.578;11.574;2022-10-17T06:31:08;97263.78;;;10.92
48003;BMP280;33768;48.578;11.574;2022-10-17T06:34:13;97262.53;;;10.93
48003;BMP280;33768;48.578;11.574;2022-10-17T06:37:18;97267.22;;;10.98
48003;BMP280;33768;48.578;11.574;2022-10-17T06:40:23;97258.22;;;11.03
48003;BMP280;33768;48.578;11.574;2022-10-17T06:43:27;97268.38;;;11.08
48003;BMP280;33768;48.578;11.574;2022-10-17T06:46:36;97255.94;;;11.12
48003;BMP280;33768;48.578;11.574;2022-10-17T06:49:42;97276.75;;;11.15
48003;BMP280;33768;48.578;11.574;2022-10-17T06:53:01;97279.00;;;11.17
48003;BMP280;33768;48.578;11.574;2022-10-17T06:56:24;97289.41;;;11.18
48003;BMP280;33768;48.578;11.574;2022-10-17T06:59:46;97289.16;;;11.22
48003;BMP280;33768;48.578;11.574;2022-10-17T07:02:58;97299.78;;;11.25
48003;BMP280;33768;48.578;11.574;2022-10-17T07:06:03;97301.00;;;11.29
48003;BMP280;33768;48.578;11.574;2022-10-17T07:09:08;97303.47;;;11.33
48003;BMP280;33768;48.578;11.574;2022-10-17T07:12:14;97298.44;;;11.42
48003;BMP280;33768;48.578;11.574;2022-10-17T07:15:22;97306.31;;;11.51
48003;BMP280;33768;48.578;11.574;2022-10-17T07:18:26;97298.53;;;11.60
48003;BMP280;33768;48.578;11.574;2022-10-17T07:21:30;97316.09;;;11.70
48003;BMP280;33768;48.578;11.574;2022-10-17T07:24:35;97318.47;;;11.79
48003;BMP280;33768;48.578;11.574;2022-10-17T07:27:59;97316.16;;;11.88
48003;BMP280;33768;48.578;11.574;2022-10-17T07:31:10;97323.75;;;12.01
48003;BMP280;33768;48.578;11.574;2022-10-17T07:34:14;97322.13;;;12.11
48003;BMP280;33768;48.578;11.574;2022-10-17T07:37:19;97321.28;;;12.21
48003;BMP280;33768;48.578;11.574;2022-10-17T07:40:30;97334.09;;;12.31
48003;BMP280;33768;48.578;11.574;2022-10-17T07:43:35;97335.47;;;12.43
48003;BMP280;33768;48.578;11.574;2022-10-17T07:46:40;97329.34;;;12.55
48003;BMP280;33768;48.578;11.574;2022-10-17T07:49:44;97331.41;;;12.68
48003;BMP280;33768;48.578;11.574;2022-10-17T07:52:48;97326.31;;;12.77
48003;BMP280;33768;48.578;11.574;2022-10-17T07:55:52;97332.41;;;12.88
48003;BMP280;33768;48.578;11.574;2022-10-17T07:58:56;97337.66;;;13.05
48003;BMP280;33768;48.578;11.574;2022-10-17T08:02:01;97341.03;;;13.29
48003;BMP280;33768;48.578;11.574;2022-10-17T08:05:05;97331.91;;;13.39
48003;BMP280;33768;48.578;11.574;2022-10-17T08:08:10;97336.16;;;13.53
48003;BMP280;33768;48.578;11.574;2022-10-17T08:11:14;97339.69;;;13.66
48003;BMP280;33768;48.578;11.574;2022-10-17T08:14:19;97332.00;;;13.77
48003;BMP280;33768;48.578;11.574;2022-10-17T08:17:23;97343.75;;;13.91
48003;BMP280;33768;48.578;11.574;2022-10-17T08:20:27;97335.78;;;14.06
48003;BMP280;33768;48.578;11.574;2022-10-17T08:23:31;97343.19;;;14.23
48003;BMP280;33768;48.578;11.574;2022-10-17T08:26:35;97343.28;;;14.43
48003;BMP280;33768;48.578;11.574;2022-10-17T08:29:39;97335.13;;;14.64
48003;BMP280;33768;48.578;11.574;2022-10-17T08:32:43;97333.22;;;14.84
48003;BMP280;33768;48.578;11.574;2022-10-17T08:35:47;97332.72;;;15.06
48003;BMP280;33768;48.578;11.574;2022-10-17T08:38:52;97330.38;;;15.23
48003;BMP280;33768;48.578;11.574;2022-10-17T08:45:36;97348.81;;;15.68
48003;BMP280;33768;48.578;11.574;2022-10-17T08:48:44;97353.94;;;15.92
48003;BMP280;33768;48.578;11.574;2022-10-17T08:52:03;97348.41;;;16.32
48003;BMP280;33768;48.578;11.574;2022-10-17T08:55:26;97342.47;;;16.90
48003;BMP280;33768;48.578;11.574;2022-10-17T08:58:33;97336.66;;;17.73
48003;BMP280;33768;48.578;11.574;2022-10-17T09:01:59;97316.88;;;18.65
48003;BMP280;33768;48.578;11.574;2022-10-17T09:05:27;97314.03;;;19.58
48003;BMP280;33768;48.578;11.574;2022-10-17T09:08:46;97326.97;;;20.28
48003;BMP280;33768;48.578;11.574;2022-10-17T09:18:39;97333.78;;;21.01
48003;BMP280;33768;48.578;11.574;2022-10-17T09:21:57;97345.97;;;20.72
48003;BMP280;33768;48.578;11.574;2022-10-17T09:25:05;97351.03;;;20.66
48003;BMP280;33768;48.578;11.574;2022-10-17T09:28:31;97344.94;;;20.84
48003;BMP280;33768;48.578;11.574;2022-10-17T09:31:43;97343.25;;;21.15
48003;BMP280;33768;48.578;11.574;2022-10-17T09:34:48;97346.56;;;21.30
48003;BMP280;33768;48.578;11.574;2022-10-17T09:37:53;97351.22;;;21.28
48003;BMP280;33768;48.578;11.574;2022-10-17T09:40:59;97346.41;;;21.28
48003;BMP280;33768;48.578;11.574;2022-10-17T09:47:30;97348.56;;;21.63
48003;BMP280;33768;48.578;11.574;2022-10-17T09:50:38;97346.03;;;22.19
48003;BMP280;33768;48.578;11.574;2022-10-17T09:53:47;97344.09;;;22.76
48003;BMP280;33768;48.578;11.574;2022-10-17T09:57:00;97349.94;;;23.45
48003;BMP280;33768;48.578;11.574;2022-10-17T10:00:05;97341.19;;;24.18
48003;BMP280;33768;48.578;11.574;2022-10-17T10:03:24;97329.66;;;24.83
48003;BMP280;33768;48.578;11.574;2022-10-17T10:06:29;97331.59;;;25.34
48003;BMP280;33768;48.578;11.574;2022-10-17T10:09:34;97347.16;;;25.80
48003;BMP280;33768;48.578;11.574;2022-10-17T10:12:39;97341.13;;;26.17
48003;BMP280;33768;48.578;11.574;2022-10-17T10:15:45;97341.72;;;26.50
48003;BMP280;33768;48.578;11.574;2022-10-17T10:18:50;97332.72;;;26.40
48003;BMP280;33768;48.578;11.574;2022-10-17T10:21:57;97328.31;;;26.60
48003;BMP280;33768;48.578;11.574;2022-10-17T10:25:15;97332.91;;;26.89
48003;BMP280;33768;48.578;11.574;2022-10-17T10:28:28;97327.66;;;27.20
48003;BMP280;33768;48.578;11.574;2022-10-17T10:31:37;97318.88;;;27.25
48003;BMP280;33768;48.578;11.574;2022-10-17T10:34:55;97312.38;;;27.09
48003;BMP280;33768;48.578;11.574;2022-10-17T10:38:01;97320.84;;;26.87
48003;BMP280;33768;48.578;11.574;2022-10-17T10:41:08;97326.66;;;26.32
48003;BMP280;33768;48.578;11.574;2022-10-17T10:44:13;97326.94;;;25.70
48003;BMP280;33768;48.578;11.574;2022-10-17T10:54:23;97337.84;;;23.80
48003;BMP280;33768;48.578;11.574;2022-10-17T10:57:31;97329.56;;;23.52
48003;BMP280;33768;48.578;11.574;2022-10-17T11:00:36;97339.72;;;23.29
48003;BMP280;33768;48.578;11.574;2022-10-17T11:04:01;97331.38;;;22.92
48003;BMP280;33768;48.578;11.574;2022-10-17T11:07:14;97319.88;;;22.41
48003;BMP280;33768;48.578;11.574;2022-10-17T11:10:56;97328.34;;;22.24
48003;BMP280;33768;48.578;11.574;2022-10-17T11:23:47;97317.94;;;21.54
48003;BMP280;33768;48.578;11.574;2022-10-17T11:27:01;97322.03;;;21.53
48003;BMP280;33768;48.578;11.574;2022-10-17T11:30:11;97321.53;;;21.47
48003;BMP280;33768;48.578;11.574;2022-10-17T11:33:24;97323.22;;;21.33
48003;BMP280;33768;48.578;11.574;2022-10-17T11:36:35;97321.41;;;21.28
48003;BMP280;33768;48.578;11.574;2022-10-17T11:40:02;97320.97;;;21.22
48003;BMP280;33768;48.578;11.574;2022-10-17T11:43:36;97314.56;;;21.29
48003;BMP280;33768;48.578;11.574;2022-10-17T11:46:40;97315.88;;;21.28
48003;BMP280;33768;48.578;11.574;2022-10-17T11:49:56;97308.59;;;21.33
48003;BMP280;33768;48.578;11.574;2022-10-17T11:56:20;97300.00;;;21.99
48003;BMP280;33768;48.578;11.574;2022-10-17T11:59:52;97309.50;;;22.51
48003;BMP280;33768;48.578;11.574;2022-10-17T12:07:23;97304.13;;;23.09
48003;BMP280;33768;48.578;11.574;2022-10-17T12:13:50;97288.88;;;23.68
48003;BMP280;33768;48.578;11.574;2022-10-17T12:16:54;97287.72;;;24.01
48003;BMP280;33768;48.578;11.574;2022-10-17T12:23:29;97279.94;;;24.71
48003;BMP280;33768;48.578;11.574;2022-10-17T12:26:33;97281.06;;;24.98
48003;BMP280;33768;48.578;11.574;2022-10-17T12:29:38;97276.66;;;25.27
48003;BMP280;33768;48.578;11.574;2022-10-17T12:42:47;97262.41;;;26.34
48003;BMP280;33768;48.578;11.574;2022-10-17T12:45:52;97270.88;;;26.59
48003;BMP280;33768;48.578;11.574;2022-10-17T12:49:03;97265.09;;;26.68
48003;BMP280;33768;48.578;11.574;2022-10-17T12:52:24;97263.41;;;26.63
48003;BMP280;33768;48.578;11.574;2022-10-17T12:55:29;97268.59;;;26.44
48003;BMP280;33768;48.578;11.574;2022-10-17T12:58:34;97271.78;;;26.27
48003;BMP280;33768;48.578;11.574;2022-10-17T13:01:39;97277.28;;;26.14
48003;BMP280;33768;48.578;11.574;2022-10-17T13:04:47;97277.41;;;26.16
48003;BMP280;33768;48.578;11.574;2022-10-17T13:07:53;97271.03;;;26.38
48003;BMP280;33768;48.578;11.574;2022-10-17T13:10:59;97265.44;;;26.38
48003;BMP280;33768;48.578;11.574;2022-10-17T13:14:11;97274.31;;;26.12
48003;BMP280;33768;48.578;11.574;2022-10-17T13:17:24;97271.53;;;25.89
48003;BMP280;33768;48.578;11.574;2022-10-17T13:20:30;97280.91;;;25.94
48003;BMP280;33768;48.578;11.574;2022-10-17T13:23:36;97277.97;;;25.92
48003;BMP280;33768;48.578;11.574;2022-10-17T13:26:44;97281.16;;;25.86
48003;BMP280;33768;48.578;11.574;2022-10-17T13:29:48;97279.06;;;25.87
48003;BMP280;33768;48.578;11.574;2022-10-17T13:32:52;97286.03;;;25.86
48003;BMP280;33768;48.578;11.574;2022-10-17T13:35:56;97283.06;;;25.73
48003;BMP280;33768;48.578;11.574;2022-10-17T13:39:06;97287.75;;;25.36
48003;BMP280;33768;48.578;11.574;2022-10-17T13:42:27;97284.97;;;25.04
48003;BMP280;33768;48.578;11.574;2022-10-17T13:45:34;97289.66;;;24.90
48003;BMP280;33768;48.578;11.574;2022-10-17T13:48:39;97288.03;;;24.67
48003;BMP280;33768;48.578;11.574;2022-10-17T13:51:47;97286.53;;;24.54
48003;BMP280;33768;48.578;11.574;2022-10-17T13:54:52;97281.28;;;24.28
48003;BMP280;33768;48.578;11.574;2022-10-17T13:58:08;97288.56;;;24.03
48003;BMP280;33768;48.578;11.574;2022-10-17T14:01:13;97291.78;;;23.79
48003;BMP280;33768;48.578;11.574;2022-10-17T14:04:17;97284.91;;;23.71
48003;BMP280;33768;48.578;11.574;2022-10-17T14:07:34;97288.47;;;23.62
48003;BMP280;33768;48.578;11.574;2022-10-17T14:10:41;97281.31;;;23.50
48003;BMP280;33768;48.578;11.574;2022-10-17T14:13:51;97285.75;;;23.34
48003;BMP280;33768;48.578;11.574;2022-10-17T14:16:56;97288.25;;;23.21
48003;BMP280;33768;48.578;11.574;2022-10-17T14:20:02;97284.22;;;22.84
48003;BMP280;33768;48.578;11.574;2022-10-17T14:23:34;97296.47;;;22.62
48003;BMP280;33768;48.578;11.574;2022-10-17T14:26:48;97299.13;;;22.60
48003;BMP280;33768;48.578;11.574;2022-10-17T14:29:54;97295.28;;;22.47
48003;BMP280;33768;48.578;11.574;2022-10-17T14:33:00;97297.34;;;22.37
48003;BMP280;33768;48.578;11.574;2022-10-17T14:36:06;97305.06;;;22.29
48003;BMP280;33768;48.578;11.574;2022-10-17T14:39:19;97309.47;;;22.23
48003;BMP280;33768;48.578;11.574;2022-10-17T14:42:24;97309.75;;;22.27
48003;BMP280;33768;48.578;11.574;2022-10-17T14:45:38;97312.53;;;22.27
48003;BMP280;33768;48.578;11.574;2022-10-17T14:48:42;97314.88;;;22.21
48003;BMP280;33768;48.578;11.574;2022-10-17T14:52:22;97314.41;;;22.15
48003;BMP280;33768;48.578;11.574;2022-10-17T14:55:29;97326.69;;;22.12
48003;BMP280;33768;48.578;11.574;2022-10-17T14:58:34;97315.34;;;21.91
48003;BMP280;33768;48.578;11.574;2022-10-17T15:01:38;97324.91;;;21.71
48003;BMP280;33768;48.578;11.574;2022-10-17T15:04:42;97330.78;;;21.49
48003;BMP280;33768;48.578;11.574;2022-10-17T15:07:46;97336.47;;;21.42
48003;BMP280;33768;48.578;11.574;2022-10-17T15:10:50;97325.91;;;21.24
48003;BMP280;33768;48.578;11.574;2022-10-17T15:13:55;97322.28;;;21.04
48003;BMP280;33768;48.578;11.574;2022-10-17T15:17:00;97326.44;;;20.96
48003;BMP280;33768;48.578;11.574;2022-10-17T15:20:12;97333.06;;;20.84
48003;BMP280;33768;48.578;11.574;2022-10-17T15:23:17;97336.19;;;20.71
48003;BMP280;33768;48.578;11.574;2022-10-17T15:26:29;97334.66;;;20.53
48003;BMP280;33768;48.578;11.574;2022-10-17T15:29:34;97333.78;;;20.34
48003;BMP280;33768;48.578;11.574;2022-10-17T15:32:38;97346.13;;;20.16
48003;BMP280;33768;48.578;11.574;2022-10-17T15:35:42;97348.13;;;19.99
48003;BMP280;33768;48.578;11.574;2022-10-17T15:38:47;97348.63;;;19.81
48003;BMP280;33768;48.578;11.574;2022-10-17T15:41:52;97360.34;;;19.65
48003;BMP280;33768;48.578;11.574;2022-10-17T15:44:56;97354.16;;;19.49
48003;BMP280;33768;48.578;11.574;2022-10-17T15:48:05;97357.72;;;19.35
48003;BMP280;33768;48.578;11.574;2022-10-17T15:51:10;97366.13;;;19.20
48003;BMP280;33768;48.578;11.574;2022-10-17T15:54:14;97364.53;;;19.03
48003;BMP280;33768;48.578;11.574;2022-10-17T15:57:30;97383.75;;;18.86
48003;BMP280;33768;48.578;11.574;2022-10-17T16:00:36;97382.31;;;18.70
48003;BMP280;33768;48.578;11.574;2022-10-17T16:03:40;97382.34;;;18.55
48003;BMP280;33768;48.578;11.574;2022-10-17T16:06:44;97386.03;;;18.43
48003;BMP280;33768;48.578;11.574;2022-10-17T16:09:48;97384.94;;;18.31
48003;BMP280;33768;48.578;11.574;2022-10-17T16:12:52;97386.41;;;18.17
48003;BMP280;33768;48.578;11.574;2022-10-17T16:15:57;97393.59;;;18.06
48003;BMP280;33768;48.578;11.574;2022-10-17T16:19:01;97406.09;;;17.92
48003;BMP280;33768;48.578;11.574;2022-10-17T16:22:17;97390.78;;;17.76
48003;BMP280;33768;48.578;11.574;2022-10-17T16:25:28;97394.44;;;17.64
48003;BMP280;33768;48.578;11.574;2022-10-17T16:28:33;97408.56;;;17.53
48003;BMP280;33768;48.578;11.574;2022-10-17T16:31:41;97414.81;;;17.39
48003;BMP280;33768;48.578;11.574;2022-10-17T16:34:45;97414.56;;;17.29
48003;BMP280;33768;48.578;11.574;2022-10-17T16:37:49;97410.84;;;17.20
48003;BMP280;33768;48.578;11.574;2022-10-17T16:40:54;97413.72;;;17.07
48003;BMP280;33768;48.578;11.574;2022-10-17T16:44:00;97414.38;;;16.92
48003;BMP280;33768;48.578;11.574;2022-10-17T16:47:04;97405.84;;;16.83
48003;BMP280;33768;48.578;11.574;2022-10-17T16:50:09;97413.72;;;16.72
48003;BMP280;33768;48.578;11.574;2022-10-17T16:53:13;97407.75;;;16.60
48003;BMP280;33768;48.578;11.574;2022-10-17T16:56:22;97407.50;;;16.51
48003;BMP280;33768;48.578;11.574;2022-10-17T16:59:27;97408.94;;;16.45
48003;BMP280;33768;48.578;11.574;2022-10-17T17:02:31;97413.66;;;16.37
48003;BMP280;33768;48.578;11.574;2022-10-17T17:05:35;97422.22;;;16.26
48003;BMP280;33768;48.578;11.574;2022-10-17T17:08:40;97412.72;;;16.14
48003;BMP280;33768;48.578;11.574;2022-10-17T17:11:44;97424.22;;;16.05
48003;BMP280;33768;48.578;11.574;2022-10-17T17:14:48;97426.13;;;15.97
48003;BMP280;33768;48.578;11.574;2022-10-17T17:17:52;97428.09;;;15.90
48003;BMP280;33768;48.578;11.574;2022-10-17T17:21:01;97438.06;;;15.80
48003;BMP280;33768;48.578;11.574;2022-10-17T17:24:06;97434.00;;;15.73
48003;BMP280;33768;48.578;11.574;2022-10-17T17:27:10;97439.63;;;15.68
48003;BMP280;33768;48.578;11.574;2022-10-17T17:30:15;97446.00;;;15.63
48003;BMP280;33768;48.578;11.574;2022-10-17T17:33:21;97442.22;;;15.53
48003;BMP280;33768;48.578;11.574;2022-10-17T17:36:33;97448.06;;;15.50
48003;BMP280;33768;48.578;11.574;2022-10-17T17:39:38;97446.47;;;15.41
48003;BMP280;33768;48.578;11.574;2022-10-17T17:42:43;97453.38;;;15.35
48003;BMP280;33768;48.578;11.574;2022-10-17T17:45:47;97451.88;;;15.34
48003;BMP280;33768;48.578;11.574;2022-10-17T17:48:52;97452.94;;;15.31
48003;BMP280;33768;48.578;11.574;2022-10-17T17:51:57;97446.09;;;15.25
48003;BMP280;33768;48.578;11.574;2022-10-17T17:55:01;97450.44;;;15.20
48003;BMP280;33768;48.578;11.574;2022-10-17T17:58:05;97445.59;;;15.13
48003;BMP280;33768;48.578;11.574;2022-10-17T18:01:19;97449.69;;;15.07
48003;BMP280;33768;48.578;11.574;2022-10-17T18:04:25;97451.28;;;15.02
48003;BMP280;33768;48.578;11.574;2022-10-17T18:07:31;97461.63;;;14.97
48003;BMP280;33768;48.578;11.574;2022-10-17T18:10:35;97452.25;;;14.92
48003;BMP280;33768;48.578;11.574;2022-10-17T18:13:39;97449.06;;;14.88
48003;BMP280;33768;48.578;11.574;2022-10-17T18:16:43;97454.16;;;14.84
48003;BMP280;33768;48.578;11.574;2022-10-17T18:19:48;97452.97;;;14.80
48003;BMP280;33768;48.578;11.574;2022-10-17T18:22:52;97456.03;;;14.76
48003;BMP280;33768;48.578;11.574;2022-10-17T18:25:58;97452.88;;;14.72
48003;BMP280;33768;48.578;11.574;2022-10-17T18:29:05;97449.19;;;14.70
48003;BMP280;33768;48.578;11.574;2022-10-17T18:32:10;97456.25;;;14.66
48003;BMP280;33768;48.578;11.574;2022-10-17T18:35:14;97458.59;;;14.62
48003;BMP280;33768;48.578;11.574;2022-10-17T18:38:18;97452.66;;;14.58
48003;BMP280;33768;48.578;11.574;2022-10-17T18:41:24;97454.22;;;14.53
48003;BMP280;33768;48.578;11.574;2022-10-17T18:44:29;97462.06;;;14.49
48003;BMP280;33768;48.578;11.574;2022-10-17T18:47:33;97463.84;;;14.47
48003;BMP280;33768;48.578;11.574;2022-10-17T18:50:37;97466.69;;;14.41
48003;BMP280;33768;48.578;11.574;2022-10-17T18:53:43;97469.00;;;14.38
48003;BMP280;33768;48.578;11.574;2022-10-17T18:56:49;97466.13;;;14.30
48003;BMP280;33768;48.578;11.574;2022-10-17T18:59:54;97469.94;;;14.27
48003;BMP280;33768;48.578;11.574;2022-10-17T19:02:58;97469.19;;;14.27
48003;BMP280;33768;48.578;11.574;2022-10-17T19:06:04;97478.19;;;14.27
48003;BMP280;33768;48.578;11.574;2022-10-17T19:09:11;97473.72;;;14.24
48003;BMP280;33768;48.578;11.574;2022-10-17T19:12:15;97476.03;;;14.20